createdAt,value
2023-03-07T00:01:58.319Z,26.20
2023-03-07T00:05:03.725Z,24.13
2023-03-07T00:08:06.593Z,23.00
2023-03-07T00:11:10.707Z,24.10
2023-03-07T00:14:16.923Z,23.90
2023-03-07T00:17:21.133Z,22.63
2023-03-07T00:20:23.833Z,24.13
2023-03-07T00:23:29.571Z,24.83
2023-03-07T00:26:39.423Z,26.23
2023-03-07T00:29:43.539Z,22.10
2023-03-07T00:32:46.238Z,27.23
2023-03-07T00:35:55.942Z,22.73
2023-03-07T00:38:58.683Z,25.57
2023-03-07T00:42:02.178Z,28.27
2023-03-07T00:45:10.887Z,25.90
2023-03-07T00:48:16.736Z,23.23
2023-03-07T00:51:21.370Z,23.30
2023-03-07T00:54:26.330Z,23.57
2023-03-07T00:57:29.014Z,23.63
2023-03-07T01:00:35.836Z,25.73
2023-03-07T01:03:38.780Z,24.27
2023-03-07T01:06:42.222Z,21.93
2023-03-07T01:09:47.084Z,27.27
2023-03-07T01:12:49.772Z,27.07
2023-03-07T01:15:53.958Z,23.70
2023-03-07T01:18:59.802Z,23.17
2023-03-07T01:22:03.250Z,26.87
2023-03-07T01:25:06.454Z,23.83
2023-03-07T01:28:10.802Z,21.63
2023-03-07T01:31:15.324Z,21.27
2023-03-07T01:34:18.070Z,24.30
2023-03-07T01:37:20.774Z,25.00
2023-03-07T01:40:24.947Z,24.93
2023-03-07T01:43:29.790Z,26.57
2023-03-07T01:46:43.416Z,25.13
2023-03-07T01:49:46.588Z,27.47
2023-03-07T01:52:55.460Z,27.17
2023-03-07T01:55:59.430Z,24.50
2023-03-07T01:59:02.376Z,27.27
2023-03-07T02:02:08.683Z,24.90
2023-03-07T02:05:17.117Z,27.33
2023-03-07T02:08:23.268Z,26.37
2023-03-07T02:11:26.228Z,24.93
2023-03-07T02:14:28.966Z,19.87
2023-03-07T02:17:33.247Z,25.60
2023-03-07T02:20:44.013Z,22.13
2023-03-07T02:23:57.389Z,25.70
2023-03-07T02:27:01.452Z,22.47
2023-03-07T02:30:05.154Z,24.00
2023-03-07T02:33:07.881Z,23.67
2023-03-07T02:36:13.938Z,22.40
2023-03-07T02:39:16.767Z,26.60
2023-03-07T02:42:24.157Z,24.33
2023-03-07T02:45:29.969Z,24.83
2023-03-07T02:48:32.720Z,22.60
2023-03-07T02:51:37.242Z,22.70
2023-03-07T02:54:42.980Z,23.07
2023-03-07T02:57:47.000Z,21.60
2023-03-07T03:00:49.795Z,22.70
2023-03-07T03:03:53.499Z,20.33
2023-03-07T03:06:56.637Z,20.97
2023-03-07T03:09:59.293Z,20.30
2023-03-07T03:13:03.330Z,21.03
2023-03-07T03:16:06.492Z,19.60
2023-03-07T03:19:09.185Z,18.03
2023-03-07T03:22:12.238Z,18.87
2023-03-07T03:25:15.868Z,17.17
2023-03-07T03:28:19.881Z,21.33
2023-03-07T03:31:22.614Z,17.83
2023-03-07T03:34:25.372Z,17.23
2023-03-07T03:37:30.596Z,17.27
2023-03-07T03:40:39.274Z,15.80
2023-03-07T03:43:43.972Z,15.27
2023-03-07T03:46:48.809Z,16.00
2023-03-07T03:49:51.529Z,15.53
2023-03-07T03:52:54.261Z,17.17
2023-03-07T03:56:11.904Z,14.33
2023-03-07T03:59:16.018Z,17.60
2023-03-07T04:02:18.861Z,12.97
2023-03-07T04:05:23.287Z,15.77
2023-03-07T04:08:25.932Z,14.97
2023-03-07T04:11:29.308Z,13.73
2023-03-07T04:14:36.493Z,14.27
2023-03-07T04:17:41.526Z,12.90
2023-03-07T04:20:45.564Z,15.23
2023-03-07T04:23:58.405Z,13.70
2023-03-07T04:27:03.956Z,15.40
2023-03-07T04:30:09.971Z,15.13
2023-03-07T04:33:12.976Z,16.13
2023-03-07T04:36:17.250Z,16.57
2023-03-07T04:39:19.925Z,15.37
2023-03-07T04:42:22.884Z,16.00
2023-03-07T04:45:26.920Z,14.40
2023-03-07T04:48:29.840Z,17.00
2023-03-07T04:51:32.595Z,19.53
2023-03-07T04:54:35.325Z,15.83
2023-03-07T04:57:41.340Z,17.27
2023-03-07T05:00:46.598Z,16.87
2023-03-07T05:03:49.859Z,19.77
2023-03-07T05:06:52.520Z,17.10
2023-03-07T05:10:00.505Z,19.83
2023-03-07T05:13:03.174Z,18.80
2023-03-07T05:16:08.024Z,16.50
2023-03-07T05:19:11.776Z,19.07
2023-03-07T05:22:14.475Z,18.60
2023-03-07T05:25:17.360Z,18.37
2023-03-07T05:28:20.257Z,18.60
2023-03-07T05:31:24.508Z,20.13
2023-03-07T05:34:27.268Z,19.40
2023-03-07T05:37:29.995Z,20.00
2023-03-07T05:40:32.720Z,20.53
2023-03-07T05:43:35.407Z,19.27
2023-03-07T05:46:39.552Z,19.80
2023-03-07T05:49:42.292Z,21.97
2023-03-07T05:52:45.334Z,20.63
2023-03-07T05:55:48.007Z,22.33
2023-03-07T05:58:50.715Z,22.30
2023-03-07T06:01:55.705Z,22.47
2023-03-07T06:04:58.963Z,21.30
2023-03-07T06:08:01.726Z,22.50
2023-03-07T06:11:04.562Z,21.80
2023-03-07T06:14:07.268Z,19.63
2023-03-07T06:17:14.425Z,26.37
2023-03-07T06:20:17.130Z,28.67
2023-03-07T06:23:19.830Z,21.57
2023-03-07T06:26:22.644Z,20.83
2023-03-07T06:29:25.367Z,22.80
2023-03-07T06:32:29.403Z,26.73
2023-03-07T06:35:32.110Z,26.30
2023-03-07T06:38:35.209Z,23.83
2023-03-07T06:41:37.946Z,22.53
2023-03-07T06:44:42.963Z,22.67
2023-03-07T06:47:47.943Z,26.20
2023-03-07T06:50:50.589Z,24.80
2023-03-07T06:53:53.422Z,21.83
2023-03-07T06:56:56.101Z,21.63
2023-03-07T06:59:58.809Z,21.17
2023-03-07T07:03:05.456Z,25.90
2023-03-07T07:06:08.330Z,22.33
2023-03-07T07:09:14.106Z,22.57
2023-03-07T07:12:16.818Z,21.43
2023-03-07T07:15:19.443Z,21.30
2023-03-07T07:18:23.487Z,22.57
2023-03-07T07:21:26.277Z,23.17
2023-03-07T07:24:29.085Z,22.73
2023-03-07T07:27:31.747Z,22.83
2023-03-07T07:30:36.782Z,20.40
2023-03-07T07:33:41.758Z,26.47
2023-03-07T07:36:44.486Z,19.03
2023-03-07T07:39:47.221Z,20.43
2023-03-07T07:42:54.344Z,21.83
2023-03-07T07:45:59.746Z,20.93
2023-03-07T07:49:03.901Z,25.07
2023-03-07T07:52:06.646Z,43.00
2023-03-07T07:55:10.541Z,44.17
2023-03-07T07:58:13.292Z,25.20
2023-03-07T08:01:17.724Z,27.93
2023-03-07T08:04:26.684Z,19.47
2023-03-07T08:07:29.407Z,19.40
2023-03-07T08:10:32.196Z,15.57
2023-03-07T08:13:35.056Z,15.53
2023-03-07T08:16:37.804Z,15.40
2023-03-07T08:19:41.879Z,19.20
2023-03-07T08:22:44.654Z,18.13
2023-03-07T08:25:47.415Z,22.03
2023-03-07T08:28:50.195Z,14.97
2023-03-07T08:31:55.246Z,16.17
2023-03-07T08:34:59.312Z,15.50
2023-03-07T08:38:02.152Z,20.27
2023-03-07T08:41:06.458Z,19.83
2023-03-07T08:44:09.140Z,15.27
2023-03-07T08:47:13.444Z,14.17
2023-03-07T08:50:18.698Z,19.80
2023-03-07T08:53:24.573Z,16.67
2023-03-07T08:56:30.514Z,13.37
2023-03-07T08:59:35.789Z,12.97
2023-03-07T09:02:38.560Z,13.40
2023-03-07T09:05:45.593Z,14.03
2023-03-07T09:08:49.245Z,12.00
2023-03-07T09:11:52.337Z,19.60
2023-03-07T09:15:04.199Z,13.73
2023-03-07T09:18:09.054Z,13.20
2023-03-07T09:21:15.746Z,15.40
2023-03-07T09:24:18.444Z,17.13
2023-03-07T09:27:21.174Z,12.60
2023-03-07T09:30:25.334Z,15.13
2023-03-07T09:33:28.115Z,15.90
2023-03-07T09:36:32.153Z,11.57
2023-03-07T09:39:37.888Z,17.13
2023-03-07T09:42:55.064Z,12.53
2023-03-07T09:46:13.492Z,10.80
2023-03-07T09:49:31.071Z,17.80
2023-03-07T09:52:42.530Z,11.17
2023-03-07T09:55:45.280Z,15.97
2023-03-07T09:58:53.377Z,10.97
2023-03-07T10:02:04.846Z,12.23
2023-03-07T10:05:21.784Z,10.97
2023-03-07T10:08:29.200Z,10.30
2023-03-07T10:11:48.057Z,12.73
2023-03-07T10:15:16.921Z,12.57
2023-03-07T10:18:32.736Z,10.60
2023-03-07T10:21:43.287Z,11.23
2023-03-07T10:25:09.364Z,11.07
2023-03-07T10:28:19.723Z,8.73
2023-03-07T10:31:27.948Z,10.07
2023-03-07T10:34:32.795Z,12.07
2023-03-07T10:37:44.943Z,9.77
2023-03-07T10:40:53.302Z,11.27
2023-03-07T10:43:56.615Z,11.67
2023-03-07T10:47:00.778Z,11.20
2023-03-07T10:50:39.609Z,11.23
2023-03-07T10:53:42.523Z,13.93
2023-03-07T10:57:07.095Z,9.27
2023-03-07T11:00:16.339Z,10.13
2023-03-07T11:03:37.090Z,9.90
2023-03-07T11:06:54.085Z,11.77
2023-03-07T11:09:57.782Z,9.00
2023-03-07T11:13:08.762Z,11.50
2023-03-07T11:16:20.003Z,12.17
2023-03-07T11:19:36.000Z,9.67
2023-03-07T11:22:38.700Z,11.50
2023-03-07T11:25:41.547Z,11.10
2023-03-07T11:28:45.772Z,12.97
2023-03-07T11:31:57.076Z,8.73
2023-03-07T11:35:07.136Z,11.67
2023-03-07T11:38:19.316Z,13.33
2023-03-07T11:41:27.741Z,12.83
2023-03-07T11:44:38.802Z,11.00
2023-03-07T11:47:52.651Z,10.03
2023-03-07T11:50:58.318Z,10.83
2023-03-07T11:54:08.921Z,16.17
2023-03-07T11:57:20.345Z,9.40
2023-03-07T12:00:32.349Z,13.70
2023-03-07T12:04:13.719Z,10.90
2023-03-07T12:07:33.562Z,10.13
2023-03-07T12:10:51.480Z,9.33
2023-03-07T12:14:02.884Z,8.37
2023-03-07T12:17:21.375Z,9.73
2023-03-07T12:20:37.831Z,9.17
2023-03-07T12:23:43.344Z,9.67
2023-03-07T12:26:56.445Z,9.13
2023-03-07T12:30:03.703Z,13.27
2023-03-07T12:33:12.367Z,9.90
2023-03-07T12:36:23.821Z,12.27
2023-03-07T12:39:31.877Z,14.60
2023-03-07T12:42:41.398Z,10.27
2023-03-07T12:45:48.417Z,10.00
2023-03-07T12:48:57.911Z,11.87
2023-03-07T12:52:05.416Z,9.93
2023-03-07T12:55:19.215Z,8.67
2023-03-07T12:58:38.719Z,9.93
2023-03-07T13:01:47.231Z,10.53
2023-03-07T13:04:51.624Z,11.27
2023-03-07T13:07:55.199Z,13.40
2023-03-07T13:10:58.169Z,11.93
2023-03-07T13:14:02.227Z,10.47
2023-03-07T13:17:05.002Z,19.90
2023-03-07T13:20:38.863Z,10.13
2023-03-07T13:23:41.704Z,10.03
2023-03-07T13:26:46.113Z,14.40
2023-03-07T13:30:18.051Z,9.50
2023-03-07T13:33:30.083Z,9.00
2023-03-07T13:36:36.282Z,9.40
2023-03-07T13:39:39.598Z,9.83
2023-03-07T13:42:46.522Z,13.73
2023-03-07T13:45:52.845Z,10.10
2023-03-07T13:49:05.446Z,8.13
2023-03-07T13:52:27.138Z,8.77
2023-03-07T13:55:38.974Z,11.23
2023-03-07T13:58:47.505Z,12.33
2023-03-07T14:01:58.631Z,10.83
2023-03-07T14:05:04.475Z,8.93
2023-03-07T14:08:15.290Z,10.17
2023-03-07T14:11:25.764Z,9.77
2023-03-07T14:14:53.646Z,11.13
2023-03-07T14:18:15.371Z,11.37
2023-03-07T14:21:27.934Z,8.03
2023-03-07T14:24:48.292Z,19.37
2023-03-07T14:27:56.097Z,12.80
2023-03-07T14:31:00.584Z,15.27
2023-03-07T14:34:16.252Z,11.00
2023-03-07T14:37:26.197Z,11.57
2023-03-07T14:40:36.270Z,8.67
2023-03-07T14:43:50.729Z,12.40
2023-03-07T14:47:06.953Z,9.87
2023-03-07T14:50:14.210Z,10.03
2023-03-07T14:53:20.927Z,11.37
2023-03-07T14:56:28.276Z,11.63
2023-03-07T14:59:31.083Z,9.17
2023-03-07T15:02:33.859Z,9.97
2023-03-07T15:05:38.350Z,10.87
2023-03-07T15:08:41.044Z,9.93
2023-03-07T15:11:52.204Z,9.90
2023-03-07T15:14:57.901Z,12.30
2023-03-07T15:18:06.752Z,9.10
2023-03-07T15:21:17.143Z,10.70
2023-03-07T15:24:22.808Z,9.20
2023-03-07T15:27:30.584Z,13.73
2023-03-07T15:30:35.963Z,14.17
2023-03-07T15:33:39.031Z,11.33
2023-03-07T15:36:41.671Z,12.03
2023-03-07T15:39:44.397Z,10.80
2023-03-07T15:42:53.331Z,13.77
2023-03-07T15:46:03.852Z,11.50
2023-03-07T15:49:07.121Z,10.87
2023-03-07T15:52:22.318Z,11.07
2023-03-07T15:55:27.327Z,12.70
2023-03-07T15:58:32.056Z,11.07
2023-03-07T16:01:34.764Z,11.30
2023-03-07T16:04:39.930Z,12.10
2023-03-07T16:07:42.845Z,12.93
2023-03-07T16:10:53.145Z,11.83
2023-03-07T16:13:57.204Z,11.40
2023-03-07T16:17:03.363Z,10.30
2023-03-07T16:20:15.235Z,8.90
2023-03-07T16:23:17.932Z,12.13
2023-03-07T16:26:22.791Z,11.50
2023-03-07T16:29:28.376Z,10.40
2023-03-07T16:32:31.149Z,10.63
2023-03-07T16:35:33.999Z,12.17
2023-03-07T16:38:36.812Z,10.10
2023-03-07T16:41:40.418Z,11.10
2023-03-07T16:44:44.554Z,16.50
2023-03-07T16:47:48.006Z,34.83
2023-03-07T16:50:50.689Z,25.77
2023-03-07T16:53:54.252Z,17.63
2023-03-07T16:57:13.468Z,14.00
2023-03-07T17:00:20.633Z,11.07
2023-03-07T17:03:23.393Z,10.67
2023-03-07T17:06:38.533Z,12.47
2023-03-07T17:09:42.105Z,10.60
2023-03-07T17:12:45.257Z,17.10
2023-03-07T17:15:50.072Z,10.23
2023-03-07T17:18:56.443Z,20.37
2023-03-07T17:22:01.335Z,19.40
2023-03-07T17:25:05.386Z,14.47
2023-03-07T17:28:11.711Z,15.07
2023-03-07T17:31:15.921Z,10.70
2023-03-07T17:34:25.829Z,16.23
2023-03-07T17:37:30.078Z,17.53
2023-03-07T17:40:32.711Z,10.93
2023-03-07T17:43:35.542Z,12.47
2023-03-07T17:46:39.652Z,12.50
2023-03-07T17:49:42.369Z,12.70
2023-03-07T17:52:45.427Z,12.83
2023-03-07T17:55:57.961Z,13.97
2023-03-07T17:59:01.849Z,9.70
2023-03-07T18:02:06.221Z,11.87
2023-03-07T18:05:13.413Z,10.47
2023-03-07T18:08:25.380Z,11.20
2023-03-07T18:11:28.758Z,11.27
2023-03-07T18:14:31.656Z,13.20
2023-03-07T18:17:47.448Z,11.67
2023-03-07T18:20:57.848Z,10.90
2023-03-07T18:24:00.564Z,12.40
2023-03-07T18:27:03.482Z,11.77
2023-03-07T18:30:08.459Z,14.10
2023-03-07T18:33:12.478Z,14.40
2023-03-07T18:36:16.977Z,10.73
2023-03-07T18:39:20.120Z,12.03
2023-03-07T18:42:23.463Z,12.37
2023-03-07T18:45:28.261Z,11.50
2023-03-07T18:48:32.397Z,14.27
2023-03-07T18:51:35.080Z,11.93
2023-03-07T18:54:37.734Z,12.13
2023-03-07T18:57:40.443Z,11.23
2023-03-07T19:00:43.180Z,13.70
2023-03-07T19:03:49.563Z,11.87
2023-03-07T19:06:52.451Z,11.27
2023-03-07T19:09:55.274Z,10.10
2023-03-07T19:12:57.970Z,12.13
2023-03-07T19:16:05.029Z,10.93
2023-03-07T19:19:09.077Z,13.93
2023-03-07T19:22:12.852Z,13.13
2023-03-07T19:25:15.734Z,11.93
2023-03-07T19:28:18.686Z,14.80
2023-03-07T19:31:22.889Z,14.47
2023-03-07T19:34:27.088Z,14.10
2023-03-07T19:37:30.138Z,14.57
2023-03-07T19:40:32.817Z,13.47
2023-03-07T19:43:35.516Z,11.67
2023-03-07T19:46:38.397Z,12.13
2023-03-07T19:49:42.388Z,14.10
2023-03-07T19:52:45.253Z,10.43
2023-03-07T19:55:48.413Z,9.90
2023-03-07T19:58:51.467Z,10.60
2023-03-07T20:01:54.993Z,11.43
2023-03-07T20:05:01.339Z,12.33
2023-03-07T20:08:04.033Z,10.53
2023-03-07T20:11:12.098Z,10.17
2023-03-07T20:14:15.166Z,11.63
2023-03-07T20:17:20.949Z,16.67
2023-03-07T20:20:24.965Z,12.70
2023-03-07T20:23:27.644Z,14.30
2023-03-07T20:26:32.505Z,12.27
2023-03-07T20:29:35.507Z,15.23
2023-03-07T20:32:38.280Z,14.57
2023-03-07T20:35:42.474Z,11.37
2023-03-07T20:38:48.482Z,15.77
2023-03-07T20:41:57.261Z,11.20
2023-03-07T20:45:02.674Z,12.63
2023-03-07T20:48:05.515Z,11.87
2023-03-07T20:51:16.518Z,14.63
2023-03-07T20:54:20.533Z,12.47
2023-03-07T20:57:23.249Z,12.63
2023-03-07T21:00:26.099Z,13.63
2023-03-07T21:03:29.530Z,12.57
2023-03-07T21:06:34.418Z,14.20
2023-03-07T21:09:37.972Z,13.73
2023-03-07T21:12:40.685Z,13.37
2023-03-07T21:15:45.503Z,11.50
2023-03-07T21:18:48.506Z,13.60
2023-03-07T21:21:55.044Z,12.63
2023-03-07T21:24:57.728Z,10.47
2023-03-07T21:28:02.586Z,14.60
2023-03-07T21:31:07.260Z,15.43
2023-03-07T21:34:14.625Z,12.07
2023-03-07T21:37:18.804Z,12.43
2023-03-07T21:40:22.087Z,11.97
2023-03-07T21:43:25.210Z,13.07
2023-03-07T21:46:28.282Z,15.07
2023-03-07T21:49:31.649Z,12.17
2023-03-07T21:52:35.725Z,13.13
2023-03-07T21:55:38.454Z,11.60
2023-03-07T21:58:42.372Z,13.33
2023-03-07T22:01:48.281Z,13.63
2023-03-07T22:04:51.045Z,18.33
2023-03-07T22:07:55.157Z,12.50
2023-03-07T22:11:00.411Z,13.73
2023-03-07T22:14:04.114Z,12.47
2023-03-07T22:17:06.838Z,15.43
2023-03-07T22:20:11.128Z,12.77
2023-03-07T22:23:15.710Z,12.47
2023-03-07T22:26:18.404Z,12.00
2023-03-07T22:29:21.127Z,13.60
2023-03-07T22:32:24.247Z,12.83
2023-03-07T22:35:27.303Z,15.37
2023-03-07T22:38:31.413Z,14.47
2023-03-07T22:41:34.690Z,13.17
2023-03-07T22:44:37.512Z,11.63
2023-03-07T22:47:40.590Z,11.53
2023-03-07T22:50:43.234Z,14.03
2023-03-07T22:53:47.812Z,11.87
2023-03-07T22:56:57.786Z,15.27
2023-03-07T23:00:00.692Z,12.67
2023-03-07T23:03:10.861Z,16.40
2023-03-07T23:06:14.201Z,15.70
2023-03-07T23:09:18.316Z,14.67
2023-03-07T23:12:20.974Z,11.87
2023-03-07T23:15:25.044Z,12.53
2023-03-07T23:18:27.726Z,18.50
2023-03-07T23:21:32.883Z,14.47
2023-03-07T23:24:37.538Z,11.83
2023-03-07T23:27:40.389Z,13.17
2023-03-07T23:30:43.118Z,11.50
2023-03-07T23:33:49.395Z,13.93
2023-03-07T23:36:52.102Z,12.97
2023-03-07T23:40:05.120Z,13.30
2023-03-07T23:43:08.620Z,16.57
2023-03-07T23:46:11.738Z,11.83
2023-03-07T23:49:32.016Z,12.67
2023-03-07T23:52:34.755Z,11.73
2023-03-07T23:55:41.474Z,17.13
2023-03-07T23:58:47.397Z,12.60
